Time;durP1;ratioP1;P1;durP2;ratioP2;P2;SDS_P1;SDS_P2;PMS_P1;PMS_P2;Temp;Humidity;BMP_temperature;BMP_pressure;BME280_temperature;BME280_humidity;BME280_pressure;Samples;Min_cycle;Max_cycle;Signal;HPM_P1;HPM_P2
2022/11/19 00:00:02;;;;;;;;;;;;;;;-5.31;82.02;98862.11;434640;1284;143898;-66
2022/11/19 00:10:09;;;;;;;21.30;14.00;;;;;;;-5.19;81.89;98858.57;431946;1278;130422;-66
2022/11/19 00:20:16;;;;;;;19.40;14.00;;;;;;;-5.12;81.90;98861.41;435886;1277;183219;-67
2022/11/19 00:30:22;;;;;;;23.20;17.00;;;;;;;-5.04;81.86;98862.48;435140;1284;144401;-66
2022/11/19 00:40:47;;;;;;;18.10;12.80;;;;;;;-4.91;81.76;98875.14;435858;1280;147116;-67
2022/11/19 00:50:53;;;;;;;14.00;10.30;;;;;;;-4.80;81.61;98881.50;435212;1277;143553;-66
2022/11/19 01:00:59;;;;;;;14.70;10.60;;;;;;;-4.72;81.41;98879.52;435828;1284;143523;-66
2022/11/19 01:11:10;;;;;;;11.90;9.50;;;;;;;-4.69;81.25;98883.05;435854;1283;146276;-66
2022/11/19 01:21:17;;;;;;;14.20;10.90;;;;;;;-4.68;80.85;98887.82;435142;1278;142515;-67
2022/11/19 01:31:25;;;;;;;11.00;9.10;;;;;;;-4.63;80.55;98888.44;435849;1287;145334;-67
2022/11/19 01:41:32;;;;;;;11.10;8.90;;;;;;;-4.61;80.35;98886.20;435772;1285;143579;-68
2022/11/19 01:51:42;;;;;;;11.10;9.70;;;;;;;-4.59;80.22;98885.14;434441;1277;202816;-67
2022/11/19 02:01:48;;;;;;;12.50;10.00;;;;;;;-4.56;79.99;98882.37;427290;1281;143525;-66
2022/11/19 02:12:14;;;;;;;10.30;8.50;;;;;;;-4.54;79.36;98891.74;435128;1277;144463;-67
2022/11/19 02:22:43;;;;;;;12.10;8.10;;;;;;;-4.50;79.10;98899.03;435826;1280;143168;-67
2022/11/19 02:33:07;;;;;;;11.60;9.70;;;;;;;-4.42;79.11;98906.44;431012;1277;143956;-68
2022/11/19 02:43:17;;;;;;;8.80;7.60;;;;;;;-4.37;79.14;98917.83;422550;1278;144511;-70
2022/11/19 02:53:23;;;;;;;8.40;7.40;;;;;;;-4.34;78.54;98915.55;419601;1277;142055;-68
2022/11/19 03:24:28;;;;;;;8.90;7.60;;;;;;;-4.40;78.74;98922.13;424726;1277;144067;-69
2022/11/19 03:34:36;;;;;;;11.70;8.30;;;;;;;-4.41;78.52;98925.73;426772;1281;143184;-68
2022/11/19 03:44:47;;;;;;;10.10;8.80;;;;;;;-4.50;78.15;98928.41;435170;1284;165159;-68
2022/11/19 03:54:53;;;;;;;10.80;9.70;;;;;;;-4.77;78.12;98947.02;420460;1280;144206;-68
2022/11/19 04:04:57;;;;;;;;;;;;;;;-5.15;78.41;98957.17;425238;1278;143169;-68
2022/11/19 04:15:03;;;;;;;13.70;10.60;;;;;;;-5.48;79.21;98957.33;418402;1280;132459;-67
2022/11/19 04:25:10;;;;;;;14.30;10.50;;;;;;;-5.87;79.64;98960.36;422151;1281;146154;-68
2022/11/19 04:35:20;;;;;;;12.70;10.80;;;;;;;-6.20;80.00;98963.33;422911;1280;147525;-69
2022/11/19 04:45:25;;;;;;;11.60;9.60;;;;;;;-6.44;80.64;98979.46;421129;1279;143773;-68
2022/11/19 04:55:31;;;;;;;15.40;11.90;;;;;;;-6.57;81.34;98996.21;422123;1283;147224;-68
2022/11/19 05:05:37;;;;;;;14.60;12.40;;;;;;;-6.55;81.91;99006.60;422057;1281;143355;-70
2022/11/19 05:15:42;;;;;;;16.20;11.80;;;;;;;-6.34;82.10;99020.82;435016;1280;143637;-68
2022/11/19 05:25:48;;;;;;;14.60;11.90;;;;;;;-6.15;82.20;99036.40;435925;1287;145732;-67
2022/11/19 05:35:52;;;;;;;;;;;;;;;-6.03;82.09;99045.54;430793;1282;144297;-66
2022/11/19 05:46:00;;;;;;;14.50;12.00;;;;;;;-5.96;81.96;99051.61;421383;1281;130312;-68
2022/11/19 05:56:07;;;;;;;17.60;13.90;;;;;;;-5.93;82.13;99055.36;435875;1284;186491;-68
2022/11/19 06:06:12;;;;;;;19.20;14.50;;;;;;;-5.91;81.86;99062.33;435112;1282;144556;-68
2022/11/19 06:16:18;;;;;;;23.00;14.70;;;;;;;-5.99;81.85;99073.29;435844;1285;145103;-68
2022/11/19 06:26:23;;;;;;;;;;;;;;;-6.21;82.06;99096.74;435872;1282;204247;-68
2022/11/19 06:36:28;;;;;;;20.60;14.10;;;;;;;-6.40;82.06;99105.15;435398;1280;129444;-68
2022/11/19 06:46:43;;;;;;;23.60;14.30;;;;;;;-6.47;82.38;99111.98;435908;1283;157525;-68
2022/11/19 06:56:49;;;;;;;21.70;14.60;;;;;;;-6.43;82.63;99117.61;434958;1284;187691;-68
2022/11/19 07:06:53;;;;;;;;;;;;;;;-6.26;82.69;99125.37;435895;1283;143928;-67
2022/11/19 07:16:59;;;;;;;14.50;11.80;;;;;;;-3.79;83.01;99113.79;436110;1275;129939;-69
2022/11/19 07:27:04;;;;;;;15.70;10.30;;;;;;;-0.31;79.92;99114.34;435163;1275;144498;-68
2022/11/19 07:37:10;;;;;;;19.10;15.50;;;;;;;2.64;76.20;99111.33;435915;1280;143467;-67
2022/11/19 07:47:16;;;;;;;15.60;10.90;;;;;;;4.98;72.26;99109.40;435938;1283;142745;-67
2022/11/19 07:57:21;;;;;;;15.50;12.10;;;;;;;6.59;68.98;99109.87;435226;1284;142469;-66
2022/11/19 08:07:36;;;;;;;20.60;14.20;;;;;;;8.56;66.68;99108.73;435888;1283;142729;-67
2022/11/19 08:28:05;;;;;;;12.80;11.40;;;;;;;12.09;60.39;99104.67;435900;1283;145526;-67
2022/11/19 08:38:11;;;;;;;9.80;8.60;;;;;;;12.90;57.51;99105.20;435902;1275;142379;-67
2022/11/19 08:48:17;;;;;;;8.10;7.30;;;;;;;13.74;54.60;99113.27;435132;1276;142463;-67
2022/11/19 08:58:23;;;;;;;6.80;6.30;;;;;;;14.50;52.23;99116.39;435894;1283;142409;-68
2022/11/19 09:08:28;;;;;;;5.20;4.80;;;;;;;14.55;48.97;99123.59;435808;1282;144727;-66
2022/11/19 09:18:37;;;;;;;5.90;5.40;;;;;;;14.42;47.28;99122.02;435122;1283;143899;-67
2022/11/19 09:28:44;;;;;;;4.50;4.10;;;;;;;12.11;46.16;99131.31;435871;1282;142868;-67
2022/11/19 09:38:50;;;;;;;7.20;6.10;;;;;;;7.61;46.74;99146.05;429258;1277;144285;-66
2022/11/19 09:49:00;;;;;;;7.20;6.40;;;;;;;4.38;48.20;99148.60;426383;1275;141453;-68
2022/11/19 09:59:25;;;;;;;10.60;6.30;;;;;;;2.38;49.72;99155.91;435907;1270;142296;-67
2022/11/19 10:09:42;;;;;;;6.90;5.50;;;;;;;0.73;51.17;99150.25;435226;1282;142358;-68
2022/11/19 10:20:03;;;;;;;6.30;5.60;;;;;;;-0.27;52.01;99147.38;434139;1283;146989;-68
2022/11/19 10:30:16;;;;;;;7.90;5.80;;;;;;;-1.01;53.10;99153.05;435154;1279;144420;-69
2022/11/19 10:40:24;;;;;;;9.10;7.40;;;;;;;-1.51;53.98;99153.45;435946;1276;141793;-69
2022/11/19 10:50:30;;;;;;;8.80;6.20;;;;;;;-1.90;55.02;99151.86;436007;1283;141900;-68
2022/11/19 11:00:37;;;;;;;13.00;7.90;;;;;;;-2.03;55.61;99149.54;435336;1282;211558;-69
2022/11/19 11:10:46;;;;;;;12.00;9.20;;;;;;;-2.21;55.82;99149.88;435830;1277;156186;-68
2022/11/19 11:20:52;;;;;;;13.70;10.40;;;;;;;-2.35;56.25;99147.89;434871;1280;143685;-68
2022/11/19 11:30:57;;;;;;;;;;;;;;;-2.39;56.87;99143.70;424130;1275;142472;-67
2022/11/19 11:41:06;;;;;;;11.70;10.30;;;;;;;-2.46;57.21;99130.63;418954;1278;128739;-68
2022/11/19 11:51:38;;;;;;;12.80;10.50;;;;;;;-2.48;57.39;99129.96;419037;1277;142597;-67
2022/11/19 12:01:54;;;;;;;12.00;9.80;;;;;;;-2.48;57.54;99139.05;435816;1281;150673;-67
2022/11/19 12:12:07;;;;;;;11.00;8.50;;;;;;;-2.40;57.62;99144.90;434862;1277;143398;-66
2022/11/19 12:22:22;;;;;;;11.80;9.10;;;;;;;-2.46;57.35;99149.99;435769;1283;144546;-66
2022/11/19 12:32:50;;;;;;;10.10;9.00;;;;;;;-2.40;57.56;99151.09;427948;1278;142310;-67
2022/11/19 12:43:03;;;;;;;14.20;9.60;;;;;;;-2.46;58.00;99159.59;435457;1277;212720;-67
2022/11/19 12:53:33;;;;;;;11.10;8.40;;;;;;;-2.48;57.98;99168.36;435743;1268;143440;-67
2022/11/19 13:03:59;;;;;;;9.40;7.60;;;;;;;-2.48;57.73;99157.40;432430;1278;197634;-66
2022/11/19 13:14:12;;;;;;;9.90;8.70;;;;;;;-2.49;57.60;99145.59;433251;1277;141938;-67
2022/11/19 13:24:29;;;;;;;9.40;7.80;;;;;;;-2.52;57.45;99149.93;435176;1277;143376;-66
2022/11/19 13:34:40;;;;;;;9.10;8.10;;;;;;;-2.61;57.25;99142.36;435725;1284;142017;-66
2022/11/19 13:44:46;;;;;;;10.40;8.00;;;;;;;-2.73;56.93;99136.55;435050;1284;142697;-66
2022/11/19 13:54:52;;;;;;;11.90;9.30;;;;;;;-2.84;56.91;99144.64;435891;1276;142303;-66
2022/11/19 14:05:37;;;;;;;22.60;16.00;;;;;;;-2.92;57.27;99160.70;434883;1282;142341;-67
2022/11/19 14:26:51;;;;;;;12.90;8.50;;;;;;;-3.43;57.18;99159.72;435909;1284;142813;-67
2022/11/19 14:37:00;;;;;;;17.60;11.20;;;;;;;-3.64;57.18;99165.81;435686;1277;195592;-66
2022/11/19 14:47:34;;;;;;;17.40;12.40;;;;;;;-3.84;57.36;99175.81;435839;1284;143028;-67
2022/11/19 14:57:42;;;;;;;18.30;13.70;;;;;;;-4.09;57.75;99188.73;427283;1277;214686;-68
2022/11/19 15:07:50;;;;;;;36.40;21.70;;;;;;;-4.28;58.31;99191.16;421097;1277;142606;-69
2022/11/19 15:18:24;;;;;;;24.40;18.30;;;;;;;-4.39;58.80;99176.56;420111;1277;146032;-69
2022/11/19 15:28:42;;;;;;;23.60;16.50;;;;;;;-4.41;59.15;99165.13;419939;1277;141640;-70
2022/11/19 15:38:54;;;;;;;23.50;15.10;;;;;;;-4.42;59.84;99171.98;419250;1278;141271;-69
2022/11/19 15:49:06;;;;;;;27.50;14.90;;;;;;;-4.47;60.38;99173.91;420618;1278;141931;-68
2022/11/19 15:59:15;;;;;;;31.60;20.60;;;;;;;-4.60;60.76;99172.66;419146;1277;144895;-69
2022/11/19 16:09:24;;;;;;;25.00;16.50;;;;;;;-4.70;61.06;99148.48;419719;1277;142984;-64
2022/11/19 16:19:30;;;;;;;35.50;20.80;;;;;;;-4.69;61.58;99146.24;422878;1275;142788;-64
2022/11/19 16:29:39;;;;;;;30.80;19.60;;;;;;;-4.75;61.87;99164.93;419029;1277;144279;-64
2022/11/19 16:39:51;;;;;;;32.90;22.20;;;;;;;-4.90;62.34;99177.84;425416;1277;143769;-64
2022/11/19 16:50:03;;;;;;;31.30;23.90;;;;;;;-5.12;62.83;99189.61;419756;1277;143915;-65
2022/11/19 17:00:18;;;;;;;31.20;23.80;;;;;;;-5.26;63.67;99182.70;418532;1278;145019;-65
2022/11/19 17:10:30;;;;;;;31.70;22.80;;;;;;;-5.40;64.15;99176.81;419258;1278;143232;-63
2022/11/19 17:21:03;;;;;;;33.60;24.40;;;;;;;-5.55;64.72;99187.81;418497;1274;192930;-63
2022/11/19 17:31:17;;;;;;;39.50;30.60;;;;;;;-5.63;65.22;99208.31;420067;1277;143459;-63
2022/11/19 17:51:49;;;;;;;33.00;24.50;;;;;;;-5.31;65.96;99211.92;421846;1290;212985;-63
2022/11/19 18:01:56;;;;;;;35.60;22.30;;;;;;;-5.11;66.18;99224.93;419988;1277;142737;-65
2022/11/19 18:12:02;;;;;;;34.50;22.90;;;;;;;-4.97;65.86;99232.54;423310;1280;142955;-62
2022/11/19 18:22:13;;;;;;;40.60;24.70;;;;;;;-4.84;65.90;99228.52;419034;1280;142814;-64
2022/11/19 18:32:19;;;;;;;33.20;22.90;;;;;;;-4.67;65.86;99223.61;419271;1278;141867;-63
2022/11/19 18:42:25;;;;;;;33.90;21.00;;;;;;;-4.54;65.85;99217.54;422207;1278;143087;-65
2022/11/19 18:52:31;;;;;;;34.40;25.10;;;;;;;-4.46;65.79;99223.29;420742;1284;150612;-64
2022/11/19 19:02:38;;;;;;;36.40;22.50;;;;;;;-4.40;65.87;99226.83;425654;1281;146933;-64
2022/11/19 19:12:42;;;;;;;;;;;;;;;-4.35;65.76;99236.00;426696;1284;145811;-64
2022/11/19 19:22:48;;;;;;;45.20;25.80;;;;;;;-4.28;65.86;99240.20;419911;1281;132386;-64
2022/11/19 19:32:54;;;;;;;38.90;23.80;;;;;;;-4.21;65.88;99245.45;425495;1277;185367;-64
2022/11/19 19:43:02;;;;;;;45.00;27.10;;;;;;;-4.17;65.82;99249.50;418781;1278;142336;-63
2022/11/19 19:53:09;;;;;;;41.40;25.00;;;;;;;-4.13;65.78;99249.83;428106;1282;143907;-63
2022/11/19 20:03:16;;;;;;;39.60;24.30;;;;;;;-4.07;65.72;99242.58;430157;1277;144627;-63
2022/11/19 20:13:27;;;;;;;44.30;27.10;;;;;;;-4.05;65.81;99236.73;428219;1280;145032;-63
2022/11/19 20:23:33;;;;;;;43.50;25.70;;;;;;;-4.10;65.75;99235.09;424905;1277;142392;-63
2022/11/19 20:33:41;;;;;;;41.50;23.30;;;;;;;-4.21;65.77;99229.38;423158;1283;147318;-63
2022/11/19 20:54:11;;;;;;;51.10;30.00;;;;;;;-4.34;66.01;99235.13;422693;1284;143312;-62
2022/11/19 21:04:17;;;;;;;36.50;22.70;;;;;;;-4.50;66.14;99238.02;427143;1283;144128;-63
2022/11/19 21:14:21;;;;;;;;;;;;;;;-4.58;66.43;99249.00;418698;1278;144900;-63
2022/11/19 21:24:27;;;;;;;32.90;21.50;;;;;;;-4.54;66.61;99258.02;423157;1282;128698;-64
2022/11/19 21:34:33;;;;;;;34.20;22.40;;;;;;;-4.47;66.63;99256.09;420849;1277;143878;-64
2022/11/19 21:44:39;;;;;;;33.70;22.80;;;;;;;-4.48;66.47;99248.77;420260;1281;143923;-64
2022/11/19 21:54:44;;;;;;;36.30;22.70;;;;;;;-4.61;66.62;99249.54;421181;1283;147688;-64
2022/11/19 22:04:50;;;;;;;33.90;22.80;;;;;;;-4.77;66.84;99252.21;418554;1280;148477;-63
2022/11/19 22:14:54;;;;;;;;;;;;;;;-4.79;66.82;99248.14;418238;1277;146551;-62
2022/11/19 22:25:00;;;;;;;35.30;24.00;;;;;;;-4.75;67.11;99237.01;420585;1281;191043;-63
2022/11/19 22:35:07;;;;;;;35.40;21.30;;;;;;;-4.62;67.12;99239.80;418809;1278;143302;-64
2022/11/19 22:45:13;;;;;;;42.70;25.10;;;;;;;-4.50;67.08;99232.71;419544;1284;144647;-65
2022/11/19 22:55:19;;;;;;;48.10;28.60;;;;;;;-4.38;66.95;99232.61;421908;1281;144224;-64
2022/11/19 23:05:24;;;;;;;;;;;;;;;-4.35;66.73;99231.21;419296;1280;146071;-64
2022/11/19 23:15:29;;;;;;;31.90;21.80;;;;;;;-4.34;66.61;99227.27;427963;1283;129597;-63
2022/11/19 23:25:35;;;;;;;33.10;21.40;;;;;;;-4.35;66.77;99223.86;420341;1281;143522;-63
2022/11/19 23:35:41;;;;;;;33.00;22.80;;;;;;;-4.34;66.69;99222.84;418163;1280;168408;-63
2022/11/19 23:45:46;;;;;;;32.30;23.30;;;;;;;-4.33;66.83;99220.77;423685;1281;143796;-63
2022/11/19 23:55:52;;;;;;;35.70;22.80;;;;;;;-4.32;66.86;99219.23;420734;1280;142975;-63
